Time;durP1;ratioP1;P1;durP2;ratioP2;P2;SDS_P1;SDS_P2;PMS_P1;PMS_P2;Temp;Humidity;BMP_temperature;BMP_pressure;BME280_temperature;BME280_humidity;BME280_pressure;Samples;Min_cycle;Max_cycle;Signal;HPM_P1;HPM_P2
2022/08/19 00:00:43;;;;;;;;;;;;;;;17.99;100.00;101342.16;2612626;36;20522;-55
2022/08/19 00:03:11;;;;;;;;;;;;;;;17.97;100.00;101338.78;2612200;36;20063;-54
2022/08/19 00:05:42;;;;;;;;;;;;;;;17.93;100.00;101332.84;2613386;36;19950;-52
2022/08/19 00:08:10;;;;;;;;;;;;;;;18.05;100.00;101336.03;2611264;36;19976;-54
2022/08/19 00:10:38;;;;;;;;;;;;;;;17.93;100.00;101332.84;2612411;36;19946;-53
2022/08/19 00:13:06;;;;;;;;;;;;;;;17.86;100.00;101343.53;2611410;36;19942;-54
2022/08/19 00:15:35;;;;;;;;;;;;;;;17.85;100.00;101340.97;2614618;31;20664;-53
2022/08/19 00:18:03;;;;;;;;;;;;;;;17.78;100.00;101348.97;2613993;31;19950;-52
2022/08/19 00:20:31;;;;;;;;;;;;;;;17.80;100.00;101346.94;2613805;36;19954;-49
2022/08/19 00:23:03;;;;;;;;;;;;;;;17.72;100.00;101346.09;2614306;36;20335;-52
2022/08/19 00:25:31;;;;;;;;;;;;;;;17.70;100.00;101348.97;2612620;36;20570;-54
2022/08/19 00:28:00;;;;;;;;;;;;;;;17.61;100.00;101344.56;2613574;36;19950;-54
2022/08/19 00:30:28;;;;;;;;;;;;;;;17.58;100.00;101339.44;2613841;36;19978;-56
2022/08/19 00:32:56;;;;;;;;;;;;;;;17.62;100.00;101340.81;2613474;36;19975;-53
2022/08/19 00:35:26;;;;;;;;;;;;;;;17.54;100.00;101344.41;2613368;36;19947;-52
2022/08/19 00:37:55;;;;;;;;;;;;;;;17.64;100.00;101341.50;2613348;36;19947;-54
2022/08/19 00:40:25;;;;;;;;;;;;;;;17.59;100.00;101335.72;2613905;36;19969;-54
2022/08/19 00:42:54;;;;;;;;;;;;;;;17.57;100.00;101337.75;2614341;36;20009;-53
2022/08/19 00:45:25;;;;;;;;;;;;;;;17.58;100.00;101334.00;2613671;36;20358;-53
2022/08/19 00:47:53;;;;;;;;;;;;;;;17.53;100.00;101339.97;2612890;31;19962;-53
2022/08/19 00:50:22;;;;;;;;;;;;;;;17.54;100.00;101338.94;2613722;36;19954;-55
2022/08/19 00:52:53;;;;;;;;;;;;;;;17.44;100.00;101322.78;2613914;36;19981;-54
2022/08/19 00:55:22;;;;;;;;;;;;;;;17.46;100.00;101328.94;2614271;36;20051;-54
2022/08/19 00:57:55;;;;;;;;;;;;;;;17.43;100.00;101329.28;2613017;36;19946;-51
2022/08/19 01:00:25;;;;;;;;;;;;;;;17.46;100.00;101331.66;2613647;36;19973;-47
2022/08/19 01:02:54;;;;;;;;;;;;;;;17.45;100.00;101335.38;2613263;36;20612;-53
2022/08/19 01:05:24;;;;;;;;;;;;;;;17.45;100.00;101329.94;2613707;36;19950;-54
2022/08/19 01:07:53;;;;;;;;;;;;;;;17.45;100.00;101327.22;2614020;36;20022;-56
2022/08/19 01:10:22;;;;;;;;;;;;;;;17.41;100.00;101334.00;2615244;36;19951;-54
2022/08/19 01:12:53;;;;;;;;;;;;;;;17.38;100.00;101334.34;2613882;36;19954;-53
2022/08/19 01:15:25;;;;;;;;;;;;;;;17.38;100.00;101339.78;2615034;36;19938;-55
2022/08/19 01:17:53;;;;;;;;;;;;;;;17.37;100.00;101338.09;2614757;36;19961;-53
2022/08/19 01:20:24;;;;;;;;;;;;;;;17.36;100.00;101336.41;2615124;36;19946;-53
2022/08/19 01:22:56;;;;;;;;;;;;;;;17.37;100.00;101327.19;2614040;36;19954;-58
2022/08/19 01:25:26;;;;;;;;;;;;;;;17.33;100.00;101331.31;2614307;36;19951;-52
2022/08/19 01:27:55;;;;;;;;;;;;;;;17.29;100.00;101329.94;2614503;36;19951;-53
2022/08/19 01:30:25;;;;;;;;;;;;;;;17.20;100.00;101330.94;2614065;31;20116;-54
2022/08/19 01:32:53;;;;;;;;;;;;;;;17.24;100.00;101335.88;2612731;36;20091;-54
2022/08/19 01:35:23;;;;;;;;;;;;;;;17.27;100.00;101331.94;2615008;36;19954;-52
2022/08/19 01:37:53;;;;;;;;;;;;;;;17.22;100.00;101328.91;2613516;36;19954;-55
2022/08/19 01:40:25;;;;;;;;;;;;;;;17.21;100.00;101335.34;2614544;31;19955;-54
2022/08/19 01:42:55;;;;;;;;;;;;;;;17.22;100.00;101327.03;2613887;36;19951;-52
2022/08/19 01:45:24;;;;;;;;;;;;;;;17.26;100.00;101336.56;2613485;36;19950;-54
2022/08/19 01:47:53;;;;;;;;;;;;;;;17.14;100.00;101325.16;2613600;36;19950;-57
2022/08/19 01:50:21;;;;;;;;;;;;;;;17.07;100.00;101326.84;2615028;36;19955;-53
2022/08/19 01:52:49;;;;;;;;;;;;;;;17.05;100.00;101334.31;2614222;31;19954;-54
2022/08/19 01:55:18;;;;;;;;;;;;;;;17.07;100.00;101329.56;2614780;36;20396;-53
2022/08/19 01:57:51;;;;;;;;;;;;;;;17.08;100.00;101330.44;2614349;36;19951;-56
2022/08/19 02:00:21;;;;;;;;;;;;;;;17.04;100.00;101332.63;2614804;36;19947;-53
2022/08/19 02:02:49;;;;;;;;;;;;;;;17.07;100.00;101334.16;2615438;36;20332;-57
2022/08/19 02:05:20;;;;;;;;;;;;;;;17.02;100.00;101334.66;2613987;36;19947;-55
2022/08/19 02:07:49;;;;;;;;;;;;;;;16.92;100.00;101339.41;2613570;36;19967;-53
2022/08/19 02:10:28;;;;;;;;;;;;;;;16.82;100.00;101339.50;2614411;31;19954;-54
2022/08/19 02:12:58;;;;;;;;;;;;;;;16.90;100.00;101335.97;2614007;36;20105;-49
2022/08/19 02:15:27;;;;;;;;;;;;;;;16.88;100.00;101341.59;2613653;36;20727;-55
2022/08/19 02:17:55;;;;;;;;;;;;;;;17.05;100.00;101347.91;2613674;31;19969;-54
2022/08/19 02:20:23;;;;;;;;;;;;;;;16.93;100.00;101344.66;2614236;31;19981;-55
2022/08/19 02:22:52;;;;;;;;;;;;;;;16.98;100.00;101333.28;2612911;36;20363;-54
2022/08/19 02:25:20;;;;;;;;;;;;;;;16.97;100.00;101335.16;2613095;36;19973;-52
2022/08/19 02:27:48;;;;;;;;;;;;;;;16.93;100.00;101333.78;2613222;36;19946;-56
2022/08/19 02:30:20;;;;;;;;;;;;;;;16.90;100.00;101331.41;2615265;36;20316;-53
2022/08/19 02:32:48;;;;;;;;;;;;;;;16.89;100.00;101334.28;2614060;31;20535;-55
2022/08/19 02:35:16;;;;;;;;;;;;;;;16.87;100.00;101333.56;2614211;36;19950;-50
2022/08/19 02:40:35;;;;;;;;;;;;;;;16.84;100.00;101348.31;2614555;36;20360;-55
2022/08/19 02:43:03;;;;;;;;;;;;;;;16.78;100.00;101349.00;2614188;36;20436;-53
2022/08/19 02:45:37;;;;;;;;;;;;;;;16.74;100.00;101353.91;2615159;36;19981;-52
2022/08/19 02:48:05;;;;;;;;;;;;;;;16.67;100.00;101358.31;2613297;36;19997;-53
2022/08/19 02:50:34;;;;;;;;;;;;;;;16.65;100.00;101354.88;2614246;31;19958;-56
2022/08/19 02:53:02;;;;;;;;;;;;;;;16.64;100.00;101353.22;2614397;36;20713;-56
2022/08/19 02:55:30;;;;;;;;;;;;;;;16.59;100.00;101348.25;2612943;36;19946;-56
2022/08/19 02:57:58;;;;;;;;;;;;;;;16.57;100.00;101341.28;2614542;36;19998;-55
2022/08/19 03:00:26;;;;;;;;;;;;;;;16.58;100.00;101346.56;2613906;31;19947;-54
2022/08/19 03:02:56;;;;;;;;;;;;;;;16.58;100.00;101346.56;2614610;36;19947;-54
2022/08/19 03:05:24;;;;;;;;;;;;;;;16.60;100.00;101346.38;2614231;36;19950;-56
2022/08/19 03:07:52;;;;;;;;;;;;;;;16.52;100.00;101344.50;2613703;36;19981;-55
2022/08/19 03:10:21;;;;;;;;;;;;;;;16.60;100.00;101351.81;2614481;36;19984;-56
2022/08/19 03:12:49;;;;;;;;;;;;;;;16.56;100.00;101348.59;2613372;36;20022;-57
2022/08/19 03:15:17;;;;;;;;;;;;;;;16.61;100.00;101348.09;2614990;36;19954;-55
2022/08/19 03:17:45;;;;;;;;;;;;;;;16.62;100.00;101344.34;2615140;31;19947;-55
2022/08/19 03:20:18;;;;;;;;;;;;;;;16.63;100.00;101348.78;2614551;36;19993;-52
2022/08/19 03:22:46;;;;;;;;;;;;;;;16.62;100.00;101349.78;2612650;31;20369;-54
2022/08/19 03:25:15;;;;;;;;;;;;;;;16.70;100.00;101348.97;2614263;36;19946;-55
2022/08/19 03:27:43;;;;;;;;;;;;;;;16.70;100.00;101338.13;2614286;36;19950;-55
2022/08/19 03:30:12;;;;;;;;;;;;;;;16.66;100.00;101342.16;2614005;36;19962;-56
2022/08/19 03:32:40;;;;;;;;;;;;;;;16.58;100.00;101343.00;2613754;36;19958;-53
2022/08/19 03:35:08;;;;;;;;;;;;;;;16.53;100.00;101342.63;2614535;36;19954;-54
2022/08/19 03:37:39;;;;;;;;;;;;;;;16.54;100.00;101352.47;2614735;36;20459;-52
2022/08/19 03:40:08;;;;;;;;;;;;;;;16.55;100.00;101343.28;2613471;36;19981;-54
2022/08/19 03:42:36;;;;;;;;;;;;;;;16.48;100.00;101343.13;2614749;36;20441;-53
2022/08/19 03:45:04;;;;;;;;;;;;;;;16.46;100.00;101347.88;2615104;36;19950;-55
2022/08/19 03:47:32;;;;;;;;;;;;;;;16.39;100.00;101339.50;2614875;31;19946;-55
2022/08/19 03:50:00;;;;;;;;;;;;;;;16.36;100.00;101339.00;2614245;36;20471;-56
2022/08/19 03:52:28;;;;;;;;;;;;;;;16.35;100.00;101349.00;2613758;31;19953;-54
2022/08/19 03:54:59;;;;;;;;;;;;;;;16.42;100.00;101350.03;2615074;31;19954;-60
2022/08/19 03:57:27;;;;;;;;;;;;;;;16.49;100.00;101357.53;2614983;36;19954;-53
2022/08/19 03:59:55;;;;;;;;;;;;;;;16.49;100.00;101352.97;2614093;36;20476;-54
2022/08/19 04:02:23;;;;;;;;;;;;;;;16.30;100.00;101345.91;2614036;36;19939;-57
2022/08/19 04:04:51;;;;;;;;;;;;;;;16.24;100.00;101355.56;2613743;36;20058;-54
2022/08/19 04:07:21;;;;;;;;;;;;;;;16.19;100.00;101359.78;2614130;36;19954;-57
2022/08/19 04:09:50;;;;;;;;;;;;;;;16.13;100.00;101349.56;2613028;36;20459;-56
2022/08/19 04:12:21;;;;;;;;;;;;;;;16.17;100.00;101356.38;2614423;36;19997;-53
2022/08/19 04:14:49;;;;;;;;;;;;;;;16.30;100.00;101351.34;2614731;36;19973;-56
2022/08/19 04:17:17;;;;;;;;;;;;;;;16.24;100.00;101344.69;2614617;36;19974;-54
2022/08/19 04:19:45;;;;;;;;;;;;;;;16.20;100.00;101334.31;2613286;36;20007;-54
2022/08/19 04:22:13;;;;;;;;;;;;;;;16.20;100.00;101340.59;2614265;31;19985;-51
2022/08/19 04:24:41;;;;;;;;;;;;;;;16.23;100.00;101334.00;2614443;36;19957;-56
2022/08/19 04:27:09;;;;;;;;;;;;;;;16.16;100.00;101327.50;2614628;36;19957;-55
2022/08/19 04:29:41;;;;;;;;;;;;;;;16.10;100.00;101334.44;2614277;36;19962;-54
2022/08/19 04:32:09;;;;;;;;;;;;;;;16.10;100.00;101329.84;2613824;36;19950;-55
2022/08/19 04:34:37;;;;;;;;;;;;;;;16.24;100.00;101330.28;2614612;36;19953;-53
2022/08/19 04:37:12;;;;;;;;;;;;;;;16.24;100.00;101330.28;2614201;36;19958;-56
2022/08/19 04:45:05;;;;;;;;;;;;;;;16.35;100.00;101327.25;2613994;36;19951;-55
2022/08/19 04:47:33;;;;;;;;;;;;;;;16.33;100.00;101323.00;2614754;36;19957;-55
2022/08/19 04:50:01;;;;;;;;;;;;;;;16.35;100.00;101316.38;2615464;31;20356;-59
2022/08/19 04:52:31;;;;;;;;;;;;;;;16.38;100.00;101320.66;2614209;36;20020;-54
2022/08/19 04:54:59;;;;;;;;;;;;;;;16.39;100.00;101317.78;2613638;36;19954;-55
2022/08/19 04:57:27;;;;;;;;;;;;;;;16.41;100.00;101321.16;2615375;36;19950;-54
2022/08/19 04:59:56;;;;;;;;;;;;;;;16.45;100.00;101322.53;2614609;31;20515;-57
2022/08/19 05:02:27;;;;;;;;;;;;;;;16.53;100.00;101323.59;2614568;36;19954;-51
2022/08/19 05:05:00;;;;;;;;;;;;;;;16.57;100.00;101314.94;2613392;36;19954;-54
2022/08/19 05:07:29;;;;;;;;;;;;;;;16.59;100.00;101317.50;2615063;36;20380;-53
2022/08/19 05:09:57;;;;;;;;;;;;;;;16.64;100.00;101326.88;2614619;36;20348;-56
2022/08/19 05:12:25;;;;;;;;;;;;;;;16.69;100.00;101323.66;2614409;36;19990;-55
2022/08/19 05:14:54;;;;;;;;;;;;;;;16.72;100.00;101326.03;2615137;36;19970;-57
2022/08/19 05:17:22;;;;;;;;;;;;;;;16.62;100.00;101333.47;2615415;36;19950;-53
2022/08/19 05:22:36;;;;;;;;;;;;;;;16.65;100.00;101335.84;2614499;36;19947;-56
2022/08/19 05:25:05;;;;;;;;;;;;;;;16.64;100.00;101337.75;2614605;36;19947;-57
2022/08/19 05:27:33;;;;;;;;;;;;;;;16.75;100.00;101343.88;2614480;31;20336;-55
2022/08/19 05:30:01;;;;;;;;;;;;;;;16.81;100.00;101330.50;2614602;31;19958;-59
2022/08/19 05:32:30;;;;;;;;;;;;;;;16.90;100.00;101330.53;2611361;36;19950;-54
2022/08/19 05:35:00;;;;;;;;;;;;;;;16.90;100.00;101335.97;2613234;36;19986;-57
2022/08/19 05:37:29;;;;;;;;;;;;;;;16.97;100.00;101328.84;2613821;36;19965;-59
2022/08/19 05:39:57;;;;;;;;;;;;;;;16.97;100.00;101331.56;2613885;36;19955;-57
2022/08/19 05:42:28;;;;;;;;;;;;;;;16.93;100.00;101325.63;2614567;36;19946;-58
2022/08/19 05:44:56;;;;;;;;;;;;;;;17.07;100.00;101335.00;2614480;36;19951;-56
2022/08/19 05:47:24;;;;;;;;;;;;;;;17.17;100.00;101338.41;2614828;36;19950;-56
2022/08/19 05:49:52;;;;;;;;;;;;;;;17.19;100.00;101349.13;2614117;36;19950;-56
2022/08/19 05:52:23;;;;;;;;;;;;;;;17.24;100.00;101349.47;2613492;36;19990;-55
2022/08/19 05:54:51;;;;;;;;;;;;;;;17.33;100.00;101353.06;2614641;36;19993;-59
2022/08/19 05:57:19;;;;;;;;;;;;;;;17.45;100.00;101357.16;2614838;36;20271;-56
2022/08/19 05:59:48;;;;;;;;;;;;;;;17.54;100.00;101351.72;2614559;36;19982;-55
2022/08/19 06:02:16;;;;;;;;;;;;;;;17.46;100.00;101342.53;2613200;36;19951;-57
2022/08/19 06:04:45;;;;;;;;;;;;;;;17.54;100.00;101346.28;2614570;36;19946;-54
2022/08/19 06:07:13;;;;;;;;;;;;;;;17.50;100.00;101343.91;2612993;36;19955;-54
2022/08/19 06:09:43;;;;;;;;;;;;;;;17.44;100.00;101347.28;2613062;36;19950;-56
2022/08/19 06:12:12;;;;;;;;;;;;;;;17.48;100.00;101345.06;2613235;36;20510;-57
2022/08/19 06:14:41;;;;;;;;;;;;;;;17.59;100.00;101349.31;2615315;36;20432;-56
2022/08/19 06:17:09;;;;;;;;;;;;;;;17.89;100.00;101360.53;2614672;36;19953;-55
2022/08/19 06:19:40;;;;;;;;;;;;;;;17.96;100.00;101353.41;2612452;36;19954;-56
2022/08/19 06:22:09;;;;;;;;;;;;;;;18.15;100.00;101361.22;2612807;36;20873;-56
2022/08/19 06:24:37;;;;;;;;;;;;;;;18.24;100.00;101363.91;2613821;36;19996;-56
2022/08/19 06:27:08;;;;;;;;;;;;;;;18.28;100.00;101357.94;2612682;36;19946;-57
2022/08/19 06:29:36;;;;;;;;;;;;;;;18.26;100.00;101365.44;2610915;36;20688;-58
2022/08/19 06:32:06;;;;;;;;;;;;;;;18.29;100.00;101361.53;2609762;36;19955;-60
2022/08/19 06:34:35;;;;;;;;;;;;;;;18.48;100.00;101358.38;2611913;36;19946;-56
2022/08/19 06:37:05;;;;;;;;;;;;;;;18.62;100.00;101355.94;2612202;36;19950;-57
2022/08/19 06:39:35;;;;;;;;;;;;;;;18.74;100.00;101357.22;2613663;36;20348;-57
2022/08/19 06:42:06;;;;;;;;;;;;;;;18.66;100.00;101349.94;2614559;36;19950;-57
2022/08/19 06:44:38;;;;;;;;;;;;;;;18.89;100.00;101350.03;2612562;36;20363;-57
2022/08/19 06:47:07;;;;;;;;;;;;;;;19.08;100.00;101350.63;2611252;36;19954;-57
2022/08/19 06:49:35;;;;;;;;;;;;;;;19.08;100.00;101347.91;2611127;36;20352;-55
2022/08/19 06:52:04;;;;;;;;;;;;;;;19.30;100.00;101340.75;2612917;31;20376;-52
2022/08/19 06:54:33;;;;;;;;;;;;;;;19.31;100.00;101342.44;2612284;36;19966;-55
2022/08/19 06:57:03;;;;;;;;;;;;;;;19.31;100.00;101344.31;2602744;36;20456;-54
2022/08/19 06:59:32;;;;;;;;;;;;;;;19.46;100.00;101345.22;2610911;36;19984;-57
2022/08/19 07:02:05;;;;;;;;;;;;;;;19.54;100.00;101336.13;2611480;36;19955;-51
2022/08/19 07:04:34;;;;;;;;;;;;;;;19.76;100.00;101332.50;2613211;36;19954;-55
2022/08/19 07:07:02;;;;;;;;;;;;;;;19.75;100.00;101340.88;2611811;36;20328;-55
2022/08/19 07:09:30;;;;;;;;;;;;;;;19.76;100.00;101337.13;2612521;36;20439;-57
2022/08/19 07:11:58;;;;;;;;;;;;;;;19.89;100.00;101339.22;2611024;31;19985;-53
2022/08/19 07:14:28;;;;;;;;;;;;;;;20.04;100.00;101339.28;2611088;36;19961;-53
2022/08/19 07:16:57;;;;;;;;;;;;;;;20.17;100.00;101338.59;2612676;36;19981;-55
2022/08/19 07:19:28;;;;;;;;;;;;;;;20.43;100.00;101341.69;2612750;36;20301;-57
2022/08/19 07:21:59;;;;;;;;;;;;;;;20.45;100.00;101341.50;2611615;31;21364;-57
2022/08/19 07:24:28;;;;;;;;;;;;;;;20.43;100.00;101338.97;2611203;31;19939;-53
2022/08/19 07:27:00;;;;;;;;;;;;;;;20.64;100.00;101342.81;2611059;36;19950;-57
2022/08/19 07:29:28;;;;;;;;;;;;;;;20.68;100.00;101340.59;2611546;36;20421;-55
2022/08/19 07:31:58;;;;;;;;;;;;;;;20.40;100.00;101341.25;2610409;36;19977;-55
2022/08/19 07:34:29;;;;;;;;;;;;;;;20.64;100.00;101345.53;2611857;36;20459;-55
2022/08/19 07:36:59;;;;;;;;;;;;;;;20.71;100.00;101345.69;2611381;36;19954;-54
2022/08/19 07:39:28;;;;;;;;;;;;;;;20.72;100.00;101342.75;2610679;36;20416;-55
2022/08/19 07:41:57;;;;;;;;;;;;;;;20.91;100.00;101351.41;2611270;36;19954;-52
2022/08/19 07:44:25;;;;;;;;;;;;;;;21.11;100.00;101347.00;2612432;31;20328;-56
2022/08/19 07:46:55;;;;;;;;;;;;;;;21.30;100.00;101341.91;2610962;36;20040;-52
2022/08/19 07:49:24;;;;;;;;;;;;;;;21.05;100.00;101341.44;2611861;36;19992;-54
2022/08/19 07:51:56;;;;;;;;;;;;;;;20.89;100.00;101356.19;2611620;31;19947;-54
2022/08/19 07:54:26;;;;;;;;;;;;;;;20.50;100.00;101358.22;2610713;36;19950;-54
2022/08/19 07:56:54;;;;;;;;;;;;;;;20.51;100.00;101359.03;2609963;31;20433;-54
2022/08/19 07:59:23;;;;;;;;;;;;;;;20.75;100.00;101368.88;2610151;31;20038;-53
2022/08/19 08:01:52;;;;;;;;;;;;;;;20.91;100.00;101376.84;2610451;36;19962;-52
2022/08/19 08:09:51;;;;;;;;;;;;;;;20.84;100.00;101373.19;2611515;36;19953;-52
2022/08/19 08:12:22;;;;;;;;;;;;;;;20.77;100.00;101380.47;2603389;31;19950;-49
2022/08/19 08:14:51;;;;;;;;;;;;;;;21.16;100.00;101382.00;2611610;36;19958;-54
2022/08/19 08:17:20;;;;;;;;;;;;;;;21.62;100.00;101373.41;2610412;31;19957;-53
2022/08/19 08:19:50;;;;;;;;;;;;;;;21.83;100.00;101379.91;2613380;36;20420;-51
2022/08/19 08:25:06;;;;;;;;;;;;;;;21.49;100.00;101384.22;2610920;36;19957;-55
2022/08/19 08:27:39;;;;;;;;;;;;;;;21.50;100.00;101389.53;2611362;36;20057;-53
2022/08/19 08:30:09;;;;;;;;;;;;;;;21.12;100.00;101391.63;2610211;31;19951;-53
2022/08/19 08:32:37;;;;;;;;;;;;;;;21.27;100.00;101403.38;2609163;36;19951;-54
2022/08/19 08:35:06;;;;;;;;;;;;;;;21.53;100.00;101402.00;2610001;36;19947;-53
2022/08/19 08:37:36;;;;;;;;;;;;;;;21.63;100.00;101405.25;2610492;36;20453;-52
2022/08/19 08:40:06;;;;;;;;;;;;;;;21.81;100.00;101409.41;2610250;31;20070;-53
2022/08/19 08:42:36;;;;;;;;;;;;;;;21.71;100.00;101412.47;2611941;36;19950;-53
2022/08/19 08:45:05;;;;;;;;;;;;;;;21.56;100.00;101407.09;2611960;36;19977;-53
2022/08/19 08:47:37;;;;;;;;;;;;;;;21.19;100.00;101414.44;2611707;36;19942;-50
2022/08/19 08:50:07;;;;;;;;;;;;;;;21.25;100.00;101421.88;2609535;36;19974;-51
2022/08/19 08:52:42;;;;;;;;;;;;;;;21.21;100.00;101423.31;2610506;36;19950;-52
2022/08/19 08:55:12;;;;;;;;;;;;;;;21.28;100.00;101416.03;2610125;36;19946;-51
2022/08/19 08:57:42;;;;;;;;;;;;;;;21.51;100.00;101420.53;2609898;31;20535;-53
2022/08/19 09:00:13;;;;;;;;;;;;;;;21.68;100.00;101416.47;2609215;36;19989;-51
2022/08/19 09:02:41;;;;;;;;;;;;;;;21.78;100.00;101420.78;2611482;36;19947;-54
2022/08/19 09:05:12;;;;;;;;;;;;;;;21.99;100.00;101418.00;2610730;36;19954;-50
2022/08/19 09:07:47;;;;;;;;;;;;;;;21.56;100.00;101423.50;2608881;36;20443;-51
2022/08/19 09:10:21;;;;;;;;;;;;;;;21.79;100.00;101423.31;2612267;36;19974;-53
2022/08/19 09:12:54;;;;;;;;;;;;;;;22.25;100.00;101416.53;2601630;36;19951;-52
2022/08/19 09:15:26;;;;;;;;;;;;;;;21.88;100.00;101410.34;2607898;36;19967;-51
2022/08/19 09:17:55;;;;;;;;;;;;;;;22.02;100.00;101412.13;2608807;36;19954;-53
2022/08/19 09:20:24;;;;;;;;;;;;;;;22.22;100.00;101416.91;2609278;31;20429;-55
2022/08/19 09:22:54;;;;;;;;;;;;;;;22.31;100.00;101414.88;2607496;36;19954;-52
2022/08/19 09:25:24;;;;;;;;;;;;;;;21.84;100.00;101419.97;2609785;36;20292;-48
2022/08/19 09:27:53;;;;;;;;;;;;;;;21.86;100.00;101418.75;2609633;36;20347;-52
2022/08/19 09:30:23;;;;;;;;;;;;;;;21.75;100.00;101415.69;2610755;36;19950;-51
2022/08/19 09:32:52;;;;;;;;;;;;;;;21.86;100.00;101417.88;2608488;36;20045;-52
2022/08/19 09:35:21;;;;;;;;;;;;;;;21.73;100.00;101413.16;2613521;36;19951;-48
2022/08/19 09:37:50;;;;;;;;;;;;;;;22.09;100.00;101422.31;2614272;36;19947;-53
2022/08/19 09:40:21;;;;;;;;;;;;;;;22.62;100.00;101422.69;2613154;31;20001;-51
2022/08/19 09:42:49;;;;;;;;;;;;;;;22.95;100.00;101405.53;2612682;36;19981;-53
2022/08/19 09:45:20;;;;;;;;;;;;;;;23.05;100.00;101410.63;2610949;36;19954;-55
2022/08/19 09:47:48;;;;;;;;;;;;;;;22.59;100.00;101409.38;2613066;31;20482;-49
2022/08/19 09:50:17;;;;;;;;;;;;;;;23.03;100.00;101404.53;2614925;31;19965;-52
2022/08/19 09:52:46;;;;;;;;;;;;;;;23.35;100.00;101408.44;2613748;36;19974;-52
2022/08/19 09:55:15;;;;;;;;;;;;;;;23.12;100.00;101418.94;2614729;31;20358;-50
2022/08/19 09:57:46;;;;;;;;;;;;;;;23.39;100.00;101406.97;2613649;36;19953;-49
2022/08/19 10:00:14;;;;;;;;;;;;;;;23.07;100.00;101414.00;2613928;36;20367;-52
2022/08/19 10:02:43;;;;;;;;;;;;;;;22.97;100.00;101414.41;2613147;36;19958;-53
2022/08/19 10:07:51;;;;;;;;;;;;;;;22.99;100.00;101409.56;2612213;36;20435;-53
2022/08/19 10:10:19;;;;;;;;;;;;;;;23.62;100.00;101409.31;2612335;36;20424;-54
2022/08/19 10:12:50;;;;;;;;;;;;;;;23.76;100.00;101403.84;2610413;36;19962;-53
2022/08/19 10:15:20;;;;;;;;;;;;;;;23.60;100.00;101402.34;2613031;36;20578;-52
2022/08/19 10:17:48;;;;;;;;;;;;;;;23.41;100.00;101415.84;2613107;36;19955;-51
2022/08/19 10:20:16;;;;;;;;;;;;;;;23.56;100.00;101403.84;2612487;36;19950;-50
2022/08/19 10:22:45;;;;;;;;;;;;;;;23.51;100.00;101398.97;2606576;36;19946;-49
2022/08/19 10:25:16;;;;;;;;;;;;;;;23.52;100.00;101399.81;2614689;31;20449;-53
2022/08/19 10:27:44;;;;;;;;;;;;;;;23.73;100.00;101405.13;2613813;31;19977;-51
2022/08/19 10:30:15;;;;;;;;;;;;;;;23.73;100.00;101402.38;2607474;36;19950;-52
2022/08/19 10:32:45;;;;;;;;;;;;;;;23.35;100.00;101400.22;2613192;36;20329;-52
2022/08/19 10:35:14;;;;;;;;;;;;;;;23.92;100.00;101395.19;2613107;36;20443;-53
2022/08/19 10:37:42;;;;;;;;;;;;;;;24.30;100.00;101401.94;2614551;36;20348;-51
2022/08/19 10:40:11;;;;;;;;;;;;;;;24.03;100.00;101401.97;2613609;36;19958;-51
2022/08/19 10:42:39;;;;;;;;;;;;;;;24.40;100.00;101393.25;2613525;36;19946;-50
2022/08/19 10:45:09;;;;;;;;;;;;;;;24.29;100.00;101383.75;2613969;36;20506;-51
2022/08/19 10:47:40;;;;;;;;;;;;;;;24.27;100.00;101383.13;2614039;36;19951;-50
2022/08/19 10:52:50;;;;;;;;;;;;;;;24.56;100.00;101380.91;2614263;36;20033;-54
2022/08/19 10:58:00;;;;;;;;;;;;;;;25.10;100.00;101367.78;2611508;36;19951;-52
2022/08/19 11:00:28;;;;;;;;;;;;;;;25.16;100.00;101362.25;2614115;31;20628;-52
2022/08/19 11:02:59;;;;;;;;;;;;;;;25.35;100.00;101362.38;2613716;36;19951;-54
2022/08/19 11:05:27;;;;;;;;;;;;;;;24.57;100.00;101364.22;2612754;36;20002;-54
2022/08/19 11:07:55;;;;;;;;;;;;;;;24.74;100.00;101366.50;2614909;36;20359;-51
2022/08/19 11:10:23;;;;;;;;;;;;;;;24.76;100.00;101359.69;2613535;36;19972;-53
2022/08/19 11:12:52;;;;;;;;;;;;;;;25.05;100.00;101362.97;2613720;36;20333;-51
2022/08/19 11:15:21;;;;;;;;;;;;;;;25.42;100.00;101360.41;2613249;36;19938;-52
2022/08/19 11:17:49;;;;;;;;;;;;;;;25.05;100.00;101362.13;2613377;36;20122;-54
2022/08/19 11:20:20;;;;;;;;;;;;;;;25.18;100.00;101360.13;2612779;31;19946;-48
2022/08/19 11:22:48;;;;;;;;;;;;;;;25.71;100.00;101358.09;2612802;31;19951;-50
2022/08/19 11:25:16;;;;;;;;;;;;;;;25.76;100.00;101354.66;2614557;36;19957;-48
2022/08/19 11:27:45;;;;;;;;;;;;;;;25.79;100.00;101349.50;2614692;36;20006;-52
2022/08/19 11:30:15;;;;;;;;;;;;;;;25.97;100.00;101354.25;2608036;36;19969;-53
2022/08/19 11:32:43;;;;;;;;;;;;;;;26.31;100.00;101356.69;2607686;36;19963;-50
2022/08/19 11:35:11;;;;;;;;;;;;;;;26.10;100.00;101353.28;2614417;36;20467;-51
2022/08/19 11:37:42;;;;;;;;;;;;;;;26.58;100.00;101357.22;2613101;36;19953;-53
2022/08/19 11:40:11;;;;;;;;;;;;;;;26.74;100.00;101351.09;2611804;36;19951;-55
2022/08/19 11:45:20;;;;;;;;;;;;;;;26.14;100.00;101348.16;2611739;36;19950;-51
2022/08/19 11:47:49;;;;;;;;;;;;;;;26.07;100.00;101345.47;2611237;36;19958;-54
2022/08/19 11:50:17;;;;;;;;;;;;;;;26.83;100.00;101346.09;2611206;36;20374;-52
2022/08/19 11:52:49;;;;;;;;;;;;;;;26.84;100.00;101344.16;2610822;36;19958;-51
2022/08/19 11:55:19;;;;;;;;;;;;;;;26.91;100.00;101350.44;2611762;36;20046;-51
2022/08/19 11:57:47;;;;;;;;;;;;;;;27.01;100.00;101347.16;2613332;36;20320;-51
2022/08/19 12:00:15;;;;;;;;;;;;;;;27.35;100.00;101334.53;2613528;36;19950;-52
2022/08/19 12:02:44;;;;;;;;;;;;;;;27.26;100.00;101339.53;2613173;36;19946;-52
2022/08/19 12:05:12;;;;;;;;;;;;;;;27.23;100.00;101342.75;2613260;36;19950;-53
2022/08/19 12:07:40;;;;;;;;;;;;;;;27.61;100.00;101333.25;2613601;31;19985;-51
2022/08/19 12:10:11;;;;;;;;;;;;;;;27.72;100.00;101339.03;2613291;36;20026;-56
2022/08/19 12:12:42;;;;;;;;;;;;;;;27.57;100.00;101334.81;2614204;31;20014;-53
2022/08/19 12:15:11;;;;;;;;;;;;;;;27.44;100.00;101335.91;2612946;36;19957;-51
2022/08/19 12:17:39;;;;;;;;;;;;;;;28.11;100.00;101347.75;2610912;36;19951;-54
2022/08/19 12:20:09;;;;;;;;;;;;;;;27.74;100.00;101346.03;2612290;36;19950;-51
2022/08/19 12:22:37;;;;;;;;;;;;;;;27.64;100.00;101342.19;2611030;36;19950;-52
2022/08/19 12:25:05;;;;;;;;;;;;;;;27.53;100.00;101325.34;2611415;36;19947;-51
2022/08/19 12:27:37;;;;;;;;;;;;;;;27.51;100.00;101330.25;2610931;31;19950;-53
2022/08/19 12:30:05;;;;;;;;;;;;;;;26.39;100.00;101343.41;2612033;31;20321;-50
2022/08/19 12:32:33;;;;;;;;;;;;;;;25.87;100.00;101340.97;2605605;36;19991;-52
2022/08/19 12:35:01;;;;;;;;;;;;;;;25.42;100.00;101343.06;2605648;36;20415;-55
2022/08/19 12:37:31;;;;;;;;;;;;;;;25.09;100.00;101366.97;2611576;36;19957;-58
2022/08/19 12:40:00;;;;;;;;;;;;;;;24.86;100.00;101363.91;2611186;36;19950;-59
2022/08/19 12:42:29;;;;;;;;;;;;;;;24.25;100.00;101360.50;2610302;36;19974;-58
2022/08/19 12:45:00;;;;;;;;;;;;;;;24.10;100.00;101356.06;2611139;36;19954;-58
2022/08/19 12:47:28;;;;;;;;;;;;;;;24.20;100.00;101354.78;2609592;36;20553;-59
2022/08/19 12:49:56;;;;;;;;;;;;;;;24.31;100.00;101363.22;2611690;36;20030;-60
2022/08/19 12:52:26;;;;;;;;;;;;;;;24.19;100.00;101364.94;2609949;36;20446;-59
2022/08/19 12:54:55;;;;;;;;;;;;;;;23.97;100.00;101375.34;2611083;36;19954;-58
2022/08/19 12:57:23;;;;;;;;;;;;;;;24.07;100.00;101369.38;2609418;36;19970;-61
2022/08/19 12:59:54;;;;;;;;;;;;;;;24.18;100.00;101370.66;2613656;36;20008;-60
2022/08/19 13:02:24;;;;;;;;;;;;;;;24.21;100.00;101367.47;2610257;31;19939;-58
2022/08/19 13:04:52;;;;;;;;;;;;;;;24.32;100.00;101355.78;2613491;36;19958;-61
2022/08/19 13:07:21;;;;;;;;;;;;;;;24.29;100.00;101362.59;2612039;36;20033;-58